Marlinton, WV (24954)

4:02 AM EST on December 07, 2016 (GMT -0500)
Seebert | | Change Station

Elev 2195 ft 38.12 °N, 80.18 °W | Updated 33 seconds ago

Overcast
Overcast
39.2 °F
Feels Like 39 °F
N
0.0
Wind Variable Wind from NNE
Gusts 0.0 mph

Today
High -- | Low -- °F
--% Chance of Precip.
Yesterday
High -- | Low -- °F
Precip. -- in
Pressure 29.86 in
Visibility 4.0 miles
Clouds Overcast 100 ft
Windchill 39 °F
Dew Point 39 °F
Humidity 99%
Rainfall 0.00 in
Snow Depth Not available.
7:24 AM 5:00 PM
Waxing Crescent, 50% visible
METAR KHSP 070855Z AUTO 28016G26KT 4SM BR OVC001 02/02 A2986 RMK AO2 P0001
Pressure 29.86 in
Visibility 4.0 miles
Clouds Overcast 100 ft
Windchill 39 °F
Dew Point 39 °F
Humidity 99%
Rainfall 0.00 in
Snow Depth Not available.
7:24 AM 5:00 PM
Waxing Crescent, 50% visible
METAR KHSP 070855Z AUTO 28016G26KT 4SM BR OVC001 02/02 A2986 RMK AO2 P0001

10-Day Weather Forecast

Almanac

Astronomy

Dec. 07, 2016 Rise Set
Actual Time
Civil Twilight
Nautical Twilight
Astronomical Twilight
Moon
Length of Visible Light
Length of Day
Tomorrow will be .
, % of the Moon is Illuminated

Today's Extremes

State Highs State Lows

Community

WunderPhotos

Upload Photos

1,956,104 photos uploaded!

WunderBlog® & News

Nearby

Air Quality

  Air Quality AQ Index Pollutant
Not available.

Snow Depth

Station Depth Elevation

Earthquake Activity

City Distance Mag. Time & Date
Minimum magnitude displayed is 2.5.

Coastal Water Temperatures

Place Temperature

Stations

Nearby Weather Stations

Station Location Temp. Windchill Dew Point Humidity Wind Precip. Elev Updated Type
                   

Watches & Warnings

There are currently no watches in effect.